createdAt,value
2023-03-18T00:01:27.036Z,5.40
2023-03-18T00:03:55.351Z,5.40
2023-03-18T00:06:24.040Z,5.30
2023-03-18T00:08:52.522Z,5.30
2023-03-18T00:11:22.400Z,5.30
2023-03-18T00:13:50.583Z,5.20
2023-03-18T00:16:19.949Z,5.20
2023-03-18T00:18:49.734Z,5.20
2023-03-18T00:21:19.013Z,5.20
2023-03-18T00:23:48.809Z,5.20
2023-03-18T00:26:17.140Z,5.20
2023-03-18T00:28:45.171Z,5.20
2023-03-18T00:31:14.111Z,5.20
2023-03-18T00:33:43.709Z,5.10
2023-03-18T00:36:14.716Z,5.10
2023-03-18T00:38:43.462Z,5.20
2023-03-18T00:41:16.046Z,5.30
2023-03-18T00:43:49.270Z,5.20
2023-03-18T00:46:19.754Z,5.20
2023-03-18T00:48:48.248Z,5.20
2023-03-18T00:51:18.629Z,5.20
2023-03-18T00:53:50.531Z,5.10
2023-03-18T00:56:19.668Z,5.30
2023-03-18T00:58:48.488Z,5.20
2023-03-18T01:01:17.881Z,5.20
2023-03-18T01:03:46.410Z,5.30
2023-03-18T01:06:18.514Z,5.30
2023-03-18T01:08:46.636Z,5.20
2023-03-18T01:11:14.776Z,5.30
2023-03-18T01:13:42.962Z,5.20
2023-03-18T01:16:11.788Z,5.30
2023-03-18T01:18:40.681Z,5.20
2023-03-18T01:21:09.445Z,5.20
2023-03-18T01:23:39.756Z,5.10
2023-03-18T01:26:08.306Z,5.10
2023-03-18T01:28:36.770Z,5.10
2023-03-18T01:31:04.920Z,5.10
2023-03-18T01:33:34.133Z,5.20
2023-03-18T01:36:03.723Z,5.20
2023-03-18T01:38:32.353Z,5.20
2023-03-18T01:41:02.684Z,5.20
2023-03-18T01:43:33.871Z,5.20
2023-03-18T01:46:03.573Z,5.20
2023-03-18T01:48:38.232Z,5.30
2023-03-18T01:51:10.091Z,5.20
2023-03-18T01:53:43.019Z,5.20
2023-03-18T01:56:12.992Z,5.30
2023-03-18T01:58:44.159Z,5.20
2023-03-18T02:01:19.223Z,5.10
2023-03-18T02:03:48.777Z,5.20
2023-03-18T02:06:16.741Z,5.10
2023-03-18T02:08:44.963Z,5.00
2023-03-18T02:11:14.811Z,5.10
2023-03-18T02:13:45.662Z,4.90
2023-03-18T02:16:18.420Z,4.90
2023-03-18T02:18:50.347Z,5.00
2023-03-18T02:21:28.601Z,4.80
2023-03-18T02:24:04.479Z,4.80
2023-03-18T02:26:44.060Z,4.80
2023-03-18T02:29:17.296Z,4.70
2023-03-18T02:31:46.591Z,4.70
2023-03-18T02:34:15.510Z,4.60
2023-03-18T02:36:43.781Z,4.60
2023-03-18T02:39:15.505Z,4.60
2023-03-18T02:41:44.837Z,4.60
2023-03-18T02:44:13.089Z,4.50
2023-03-18T02:46:50.637Z,4.50
2023-03-18T02:49:19.877Z,4.50
2023-03-18T02:51:49.292Z,4.50
2023-03-18T02:54:21.066Z,4.50
2023-03-18T02:56:49.403Z,4.50
2023-03-18T02:59:17.455Z,4.40
2023-03-18T03:01:48.822Z,4.50
2023-03-18T03:04:17.941Z,4.50
2023-03-18T03:06:46.490Z,4.50
2023-03-18T03:09:16.706Z,4.40
2023-03-18T03:11:47.229Z,4.40
2023-03-18T03:14:16.286Z,4.30
2023-03-18T03:16:44.327Z,4.40
2023-03-18T03:19:13.731Z,4.30
2023-03-18T03:21:42.369Z,4.30
2023-03-18T03:24:10.977Z,4.30
2023-03-18T03:26:39.299Z,4.30
2023-03-18T03:29:07.369Z,4.20
2023-03-18T03:31:35.953Z,4.10
2023-03-18T03:34:04.218Z,4.10
2023-03-18T03:36:34.204Z,4.10
2023-03-18T03:39:02.248Z,4.10
2023-03-18T03:41:30.274Z,4.10
2023-03-18T03:43:58.794Z,4.20
2023-03-18T03:46:27.687Z,4.20
2023-03-18T03:48:55.693Z,4.30
2023-03-18T03:51:23.997Z,4.20
2023-03-18T03:53:54.018Z,4.20
2023-03-18T03:56:22.343Z,4.20
2023-03-18T03:58:50.311Z,4.20
2023-03-18T04:01:18.423Z,4.20
2023-03-18T04:03:46.497Z,4.20
2023-03-18T04:06:14.646Z,4.20
2023-03-18T04:08:42.773Z,4.10
2023-03-18T04:11:12.762Z,4.00
2023-03-18T04:13:41.065Z,4.00
2023-03-18T04:16:09.611Z,4.00
2023-03-18T04:18:37.774Z,4.00
2023-03-18T04:21:06.450Z,3.90
2023-03-18T04:23:34.470Z,3.90
2023-03-18T04:26:02.476Z,3.80
2023-03-18T04:28:31.834Z,3.70
2023-03-18T04:30:59.979Z,3.90
2023-03-18T04:33:28.131Z,3.80
2023-03-18T04:35:56.409Z,3.70
2023-03-18T04:38:24.520Z,3.70
2023-03-18T04:40:52.634Z,3.70
2023-03-18T04:43:21.158Z,3.60
2023-03-18T04:45:50.542Z,3.60
2023-03-18T04:48:18.532Z,3.60
2023-03-18T04:50:46.928Z,3.60
2023-03-18T04:53:14.886Z,3.60
2023-03-18T04:55:43.513Z,3.50
2023-03-18T04:58:13.515Z,3.50
2023-03-18T05:00:41.515Z,3.60
2023-03-18T05:03:10.947Z,3.50
2023-03-18T05:05:39.276Z,3.50
2023-03-18T05:08:08.537Z,3.40
2023-03-18T05:10:36.585Z,3.40
2023-03-18T05:13:04.690Z,3.30
2023-03-18T05:15:33.154Z,3.30
2023-03-18T05:18:01.606Z,3.30
2023-03-18T05:20:31.308Z,3.20
2023-03-18T05:22:59.310Z,3.20
2023-03-18T05:25:28.082Z,3.20
2023-03-18T05:27:57.755Z,3.10
2023-03-18T05:30:25.726Z,3.10
2023-03-18T05:32:53.857Z,3.10
2023-03-18T05:35:21.954Z,3.10
2023-03-18T05:37:51.656Z,3.10
2023-03-18T05:40:19.798Z,3.20
2023-03-18T05:42:55.875Z,3.10
2023-03-18T05:45:25.453Z,3.10
2023-03-18T05:47:53.542Z,3.10
2023-03-18T05:50:30.027Z,3.10
2023-03-18T05:52:59.434Z,3.10
2023-03-18T05:55:28.337Z,3.10
2023-03-18T05:57:56.749Z,3.10
2023-03-18T06:00:25.754Z,3.10
2023-03-18T06:02:54.082Z,3.10
2023-03-18T06:05:22.680Z,3.10
2023-03-18T06:07:50.776Z,3.20
2023-03-18T06:10:20.896Z,3.20
2023-03-18T06:12:49.329Z,3.20
2023-03-18T06:15:17.362Z,3.40
2023-03-18T06:17:45.631Z,3.50
2023-03-18T06:20:14.704Z,3.40
2023-03-18T06:22:43.798Z,3.50
2023-03-18T06:25:12.045Z,3.60
2023-03-18T06:27:41.965Z,3.70
2023-03-18T06:30:11.357Z,3.70
2023-03-18T06:32:42.542Z,3.70
2023-03-18T06:35:11.766Z,3.80
2023-03-18T06:37:40.658Z,4.00
2023-03-18T06:40:10.555Z,4.10
2023-03-18T06:42:39.162Z,4.20
2023-03-18T06:45:10.087Z,4.50
2023-03-18T06:47:38.395Z,4.40
2023-03-18T06:50:09.123Z,4.60
2023-03-18T06:52:38.321Z,4.70
2023-03-18T06:55:07.524Z,4.80
2023-03-18T06:57:35.536Z,5.10
2023-03-18T07:00:07.393Z,5.20
2023-03-18T07:02:39.486Z,5.50
2023-03-18T07:05:12.724Z,5.70
2023-03-18T07:07:42.067Z,6.20
2023-03-18T07:10:12.399Z,6.40
2023-03-18T07:12:40.740Z,6.70
2023-03-18T07:15:09.622Z,7.00
2023-03-18T07:17:38.948Z,7.30
2023-03-18T07:20:08.164Z,7.90
2023-03-18T07:22:37.325Z,8.20
2023-03-18T07:25:06.346Z,8.70
2023-03-18T07:27:35.004Z,8.70
2023-03-18T07:30:02.965Z,8.90
2023-03-18T07:32:31.978Z,9.10
2023-03-18T07:35:02.965Z,9.20
2023-03-18T07:37:31.710Z,9.10
2023-03-18T07:39:59.859Z,9.30
2023-03-18T07:42:28.373Z,9.40
2023-03-18T07:44:56.700Z,9.60
2023-03-18T07:47:25.192Z,9.90
2023-03-18T07:49:53.647Z,9.90
2023-03-18T07:52:23.631Z,10.30
2023-03-18T07:54:52.417Z,10.80
2023-03-18T07:57:20.607Z,10.90
2023-03-18T07:59:49.205Z,11.10
2023-03-18T08:02:17.545Z,11.20
2023-03-18T08:04:46.857Z,11.40
2023-03-18T08:07:15.390Z,11.80
2023-03-18T08:09:44.982Z,11.90
2023-03-18T08:12:14.303Z,11.90
2023-03-18T08:14:43.157Z,11.90
2023-03-18T08:17:11.886Z,12.30
2023-03-18T08:19:40.050Z,12.40
2023-03-18T08:22:08.167Z,12.80
2023-03-18T08:24:37.292Z,12.80
2023-03-18T08:27:07.417Z,12.80
2023-03-18T08:29:35.445Z,13.10
2023-03-18T08:32:03.940Z,13.30
2023-03-18T08:34:31.950Z,13.30
2023-03-18T08:37:00.037Z,13.70
2023-03-18T08:39:28.286Z,13.80
2023-03-18T08:41:56.472Z,14.20
2023-03-18T08:44:26.168Z,14.50
2023-03-18T08:46:54.137Z,14.70
2023-03-18T08:49:22.104Z,15.10
2023-03-18T08:51:50.720Z,14.70
2023-03-18T08:54:20.201Z,14.40
2023-03-18T08:56:48.586Z,15.00
2023-03-18T08:59:17.864Z,14.80
2023-03-18T09:01:47.994Z,14.90
2023-03-18T09:04:16.034Z,15.90
2023-03-18T09:06:44.066Z,15.90
2023-03-18T09:09:12.218Z,16.30
2023-03-18T09:11:40.556Z,16.10
2023-03-18T09:14:09.039Z,15.90
2023-03-18T09:16:37.704Z,15.80
2023-03-18T09:19:07.109Z,15.70
2023-03-18T09:21:35.896Z,16.00
2023-03-18T09:24:07.028Z,16.30
2023-03-18T09:26:35.637Z,16.70
2023-03-18T09:29:03.634Z,17.10
2023-03-18T09:31:31.682Z,16.30
2023-03-18T09:33:59.796Z,16.10
2023-03-18T09:36:29.221Z,17.00
2023-03-18T09:38:57.340Z,17.10
2023-03-18T09:41:41.722Z,16.70
2023-03-18T09:44:17.435Z,16.80
2023-03-18T09:46:59.369Z,16.80
2023-03-18T09:49:39.799Z,17.00
2023-03-18T09:52:20.071Z,16.70
2023-03-18T09:54:54.823Z,16.50
2023-03-18T09:57:28.237Z,16.80
2023-03-18T10:00:05.177Z,16.60
2023-03-18T10:02:37.942Z,16.70
2023-03-18T10:05:12.419Z,16.60
2023-03-18T10:07:44.629Z,16.70
2023-03-18T10:10:23.450Z,17.10
2023-03-18T10:12:55.335Z,17.20
2023-03-18T10:15:28.240Z,17.20
2023-03-18T10:18:01.221Z,17.00
2023-03-18T10:20:35.813Z,17.20
2023-03-18T10:23:32.983Z,17.50
2023-03-18T10:26:06.819Z,17.30
2023-03-18T10:28:59.645Z,16.80
2023-03-18T10:31:37.321Z,17.10
2023-03-18T10:34:11.443Z,17.40
2023-03-18T10:36:48.178Z,17.50
2023-03-18T10:39:21.722Z,17.20
2023-03-18T10:41:52.428Z,17.20
2023-03-18T10:44:23.644Z,17.20
2023-03-18T10:47:00.658Z,17.40
2023-03-18T10:49:32.839Z,17.30
2023-03-18T10:52:07.870Z,17.00
2023-03-18T10:54:41.490Z,17.40
2023-03-18T10:57:14.188Z,17.40
2023-03-18T10:59:44.630Z,17.10
2023-03-18T11:02:19.646Z,17.00
2023-03-18T11:04:50.625Z,17.10
2023-03-18T11:07:23.725Z,17.20
2023-03-18T11:09:55.922Z,17.30
2023-03-18T11:12:27.186Z,17.40
2023-03-18T11:14:56.273Z,17.50
2023-03-18T11:17:29.334Z,17.80
2023-03-18T11:20:08.149Z,18.00
2023-03-18T11:22:37.723Z,18.20
2023-03-18T11:25:16.380Z,18.10
2023-03-18T11:27:47.146Z,18.40
2023-03-18T11:30:33.023Z,18.20
2023-03-18T11:33:05.991Z,18.30
2023-03-18T11:35:38.718Z,18.10
2023-03-18T11:38:07.835Z,18.30
2023-03-18T11:40:41.289Z,18.40
2023-03-18T11:43:19.553Z,18.60
2023-03-18T11:45:58.289Z,18.80
2023-03-18T11:48:34.130Z,18.80
2023-03-18T11:51:17.490Z,19.10
2023-03-18T11:53:56.764Z,18.80
2023-03-18T11:56:34.340Z,18.90
2023-03-18T11:59:38.193Z,19.30
2023-03-18T12:02:32.082Z,19.30
2023-03-18T12:05:43.660Z,19.30
2023-03-18T12:08:20.644Z,19.30
2023-03-18T12:10:56.008Z,19.40
2023-03-18T12:13:37.521Z,19.60
2023-03-18T12:16:12.592Z,19.40
2023-03-18T12:18:56.414Z,19.30
2023-03-18T12:21:46.879Z,19.30
2023-03-18T12:24:35.653Z,19.00
2023-03-18T12:27:09.227Z,19.50
2023-03-18T12:30:04.602Z,19.50
2023-03-18T12:32:36.610Z,19.50
2023-03-18T12:35:30.948Z,19.80
2023-03-18T12:38:38.338Z,19.80
2023-03-18T12:41:09.857Z,19.70
2023-03-18T12:43:51.629Z,19.10
2023-03-18T12:46:27.188Z,19.90
2023-03-18T12:49:03.834Z,20.00
2023-03-18T12:51:39.849Z,20.10
2023-03-18T12:54:16.109Z,20.60
2023-03-18T12:56:50.963Z,20.50
2023-03-18T12:59:24.287Z,20.60
2023-03-18T13:02:05.482Z,20.70
2023-03-18T13:04:37.379Z,20.70
2023-03-18T13:07:15.865Z,20.50
2023-03-18T13:09:46.910Z,20.30
2023-03-18T13:12:16.980Z,20.30
2023-03-18T13:14:51.468Z,20.40
2023-03-18T13:17:25.620Z,20.50
2023-03-18T13:19:53.776Z,20.50
2023-03-18T13:22:51.581Z,20.20
2023-03-18T13:25:30.443Z,19.80
2023-03-18T13:28:27.953Z,19.40
2023-03-18T13:31:07.741Z,19.20
2023-03-18T13:33:57.725Z,19.30
2023-03-18T13:36:50.304Z,19.40
2023-03-18T13:39:32.783Z,19.20
2023-03-18T13:42:26.820Z,19.70
2023-03-18T13:45:02.308Z,19.90
2023-03-18T13:47:33.313Z,20.10
2023-03-18T13:50:05.372Z,19.80
2023-03-18T13:52:42.984Z,19.60
2023-03-18T13:55:26.128Z,19.60
2023-03-18T13:58:01.404Z,19.50
2023-03-18T14:00:34.151Z,20.00
2023-03-18T14:03:17.398Z,19.90
2023-03-18T14:05:47.471Z,20.00
2023-03-18T14:08:48.267Z,19.70
2023-03-18T14:11:50.368Z,19.30
2023-03-18T14:15:05.899Z,19.60
2023-03-18T14:17:47.617Z,19.60
2023-03-18T14:20:25.450Z,19.50
2023-03-18T14:22:56.656Z,19.40
2023-03-18T14:25:44.197Z,19.60
2023-03-18T14:28:22.755Z,19.60
2023-03-18T14:31:13.751Z,19.60
2023-03-18T14:33:53.640Z,19.30
2023-03-18T14:36:40.952Z,19.20
2023-03-18T14:39:15.130Z,19.40
2023-03-18T14:41:48.653Z,19.60
2023-03-18T14:44:23.888Z,19.50
2023-03-18T14:46:53.558Z,19.50
2023-03-18T14:49:35.459Z,19.30
2023-03-18T14:52:07.417Z,19.00
2023-03-18T14:54:46.003Z,19.00
2023-03-18T14:57:14.246Z,18.80
2023-03-18T14:59:42.851Z,18.90
2023-03-18T15:02:23.926Z,18.90
2023-03-18T15:04:54.351Z,19.00
2023-03-18T15:07:26.395Z,19.10
2023-03-18T15:09:56.880Z,19.10
2023-03-18T15:12:28.722Z,19.60
2023-03-18T15:14:57.063Z,20.20
2023-03-18T15:17:28.286Z,20.30
2023-03-18T15:20:00.259Z,20.70
2023-03-18T15:22:31.637Z,20.90
2023-03-18T15:25:03.976Z,21.20
2023-03-18T15:27:34.500Z,21.50
2023-03-18T15:30:04.911Z,21.40
2023-03-18T15:32:34.740Z,21.80
2023-03-18T15:35:16.604Z,22.30
2023-03-18T15:37:45.708Z,22.60
2023-03-18T15:40:27.032Z,21.80
2023-03-18T15:42:57.740Z,21.50
2023-03-18T15:45:29.218Z,21.00
2023-03-18T15:47:59.506Z,20.30
2023-03-18T15:50:31.724Z,19.90
2023-03-18T15:53:05.614Z,19.60
2023-03-18T15:55:47.601Z,19.70
2023-03-18T15:58:22.895Z,19.60
2023-03-18T16:00:52.595Z,19.30
2023-03-18T16:03:23.541Z,19.10
2023-03-18T16:05:52.294Z,18.90
2023-03-18T16:08:21.631Z,18.80
2023-03-18T16:10:53.914Z,18.60
2023-03-18T16:13:25.030Z,18.30
2023-03-18T16:15:53.978Z,18.00
2023-03-18T16:18:22.704Z,17.80
2023-03-18T16:20:51.158Z,17.80
2023-03-18T16:23:20.275Z,17.50
2023-03-18T16:25:51.715Z,17.40
2023-03-18T16:28:22.521Z,17.30
2023-03-18T16:30:53.365Z,17.00
2023-03-18T16:33:21.897Z,16.90
2023-03-18T16:35:55.657Z,16.80
2023-03-18T16:38:23.788Z,16.60
2023-03-18T16:40:54.893Z,16.50
2023-03-18T16:43:26.907Z,16.40
2023-03-18T16:45:58.822Z,16.30
2023-03-18T16:48:27.862Z,16.10
2023-03-18T16:50:57.440Z,16.00
2023-03-18T16:53:27.852Z,16.00
2023-03-18T16:55:59.705Z,15.70
2023-03-18T16:58:30.302Z,15.60
2023-03-18T17:00:58.336Z,15.50
2023-03-18T17:03:26.351Z,15.40
2023-03-18T17:05:54.454Z,15.30
2023-03-18T17:08:22.876Z,15.10
2023-03-18T17:10:52.460Z,15.00
2023-03-18T17:13:24.131Z,14.80
2023-03-18T17:15:52.712Z,14.60
2023-03-18T17:18:23.061Z,14.40
2023-03-18T17:20:51.817Z,14.20
2023-03-18T17:23:21.514Z,14.00
2023-03-18T17:25:51.919Z,13.90
2023-03-18T17:28:29.842Z,13.80
2023-03-18T17:30:57.978Z,13.60
2023-03-18T17:33:29.016Z,13.40
2023-03-18T17:35:57.265Z,13.30
2023-03-18T17:38:25.855Z,13.20
2023-03-18T17:40:54.788Z,13.10
2023-03-18T17:43:29.244Z,13.10
2023-03-18T17:45:58.057Z,13.00
2023-03-18T17:48:27.222Z,12.90
2023-03-18T17:50:57.850Z,12.80
2023-03-18T17:53:33.156Z,12.70
2023-03-18T17:56:01.851Z,12.70
2023-03-18T17:58:33.172Z,12.70
2023-03-18T18:01:05.635Z,12.70
2023-03-18T18:03:35.077Z,12.60
2023-03-18T18:06:04.559Z,12.60
2023-03-18T18:08:32.742Z,12.50
2023-03-18T18:11:11.777Z,12.50
2023-03-18T18:13:41.409Z,12.50
2023-03-18T18:16:09.385Z,12.30
2023-03-18T18:18:38.141Z,12.20
2023-03-18T18:21:11.191Z,12.10
2023-03-18T18:23:40.115Z,12.10
2023-03-18T18:26:10.342Z,12.00
2023-03-18T18:28:41.031Z,11.90
2023-03-18T18:31:10.951Z,11.80
2023-03-18T18:33:41.439Z,11.70
2023-03-18T18:36:10.614Z,11.70
2023-03-18T18:38:38.846Z,11.70
2023-03-18T18:41:07.477Z,11.60
2023-03-18T18:43:36.000Z,11.50
2023-03-18T18:46:05.411Z,11.50
2023-03-18T18:48:35.492Z,11.40
2023-03-18T18:51:04.546Z,11.30
2023-03-18T18:53:35.720Z,11.30
2023-03-18T18:56:13.725Z,11.30
2023-03-18T18:58:42.142Z,11.20
2023-03-18T19:01:13.331Z,11.20
2023-03-18T19:03:41.839Z,11.20
2023-03-18T19:06:27.934Z,11.10
2023-03-18T19:08:57.658Z,11.10
2023-03-18T19:11:26.461Z,11.00
2023-03-18T19:13:55.111Z,10.90
2023-03-18T19:16:30.259Z,10.70
2023-03-18T19:18:58.985Z,10.60
2023-03-18T19:21:27.135Z,10.60
2023-03-18T19:23:55.259Z,10.60
2023-03-18T19:26:23.298Z,10.50
2023-03-18T19:29:01.336Z,10.60
2023-03-18T19:31:36.741Z,10.50
2023-03-18T19:34:16.128Z,10.50
2023-03-18T19:36:44.462Z,10.40
2023-03-18T19:39:16.460Z,10.40
2023-03-18T19:41:45.697Z,10.40
2023-03-18T19:44:17.651Z,10.30
2023-03-18T19:46:48.111Z,10.40
2023-03-18T19:49:20.610Z,10.40
2023-03-18T19:51:49.795Z,10.30
2023-03-18T19:54:31.362Z,10.30
2023-03-18T19:57:01.374Z,10.20
2023-03-18T19:59:38.212Z,10.20
2023-03-18T20:02:19.782Z,10.20
2023-03-18T20:04:49.387Z,10.10
2023-03-18T20:07:19.204Z,10.10
2023-03-18T20:09:47.930Z,10.10
2023-03-18T20:12:23.739Z,10.10
2023-03-18T20:14:52.011Z,10.10
2023-03-18T20:17:30.886Z,10.10
2023-03-18T20:19:59.144Z,10.00
2023-03-18T20:22:30.506Z,10.00
2023-03-18T20:24:58.566Z,9.90
2023-03-18T20:27:26.677Z,9.90
2023-03-18T20:29:54.685Z,9.90
2023-03-18T20:32:22.744Z,9.80
2023-03-18T20:34:52.102Z,9.80
2023-03-18T20:37:23.621Z,9.80
2023-03-18T20:39:52.188Z,9.80
2023-03-18T20:42:20.218Z,9.80
2023-03-18T20:44:48.274Z,9.80
2023-03-18T20:47:16.325Z,9.70
2023-03-18T20:49:45.604Z,9.70
2023-03-18T20:52:25.894Z,9.60
2023-03-18T20:54:54.408Z,9.70
2023-03-18T20:57:30.733Z,9.70
2023-03-18T20:59:58.703Z,9.70
2023-03-18T21:02:30.759Z,9.60
2023-03-18T21:04:59.576Z,9.60
2023-03-18T21:07:41.708Z,9.60
2023-03-18T21:10:16.006Z,9.50
2023-03-18T21:12:50.926Z,9.40
2023-03-18T21:15:21.307Z,9.40
2023-03-18T21:17:49.875Z,9.40
2023-03-18T21:20:32.486Z,9.30
2023-03-18T21:23:02.415Z,9.30
2023-03-18T21:25:30.812Z,9.40
2023-03-18T21:27:58.855Z,9.40
2023-03-18T21:30:27.580Z,9.50
2023-03-18T21:32:55.835Z,9.40
2023-03-18T21:35:26.056Z,9.40
2023-03-18T21:37:55.540Z,9.40
2023-03-18T21:40:26.221Z,9.40
2023-03-18T21:42:54.213Z,9.40
2023-03-18T21:45:24.244Z,9.40
2023-03-18T21:47:53.176Z,9.30
2023-03-18T21:50:29.175Z,9.30
2023-03-18T21:52:59.072Z,9.30
2023-03-18T21:55:28.493Z,9.30
2023-03-18T21:57:56.486Z,9.30
2023-03-18T22:00:24.687Z,9.30
2023-03-18T22:02:55.757Z,9.20
2023-03-18T22:05:25.044Z,9.10
2023-03-18T22:07:53.122Z,9.10
2023-03-18T22:10:23.264Z,9.00
2023-03-18T22:12:52.711Z,9.00
2023-03-18T22:15:35.280Z,8.90
2023-03-18T22:18:04.155Z,8.80
2023-03-18T22:20:32.904Z,8.80
2023-03-18T22:23:01.152Z,8.90
2023-03-18T22:25:32.430Z,8.90
2023-03-18T22:28:02.035Z,9.00
2023-03-18T22:30:32.761Z,9.00
2023-03-18T22:33:02.471Z,9.10
2023-03-18T22:35:31.442Z,9.10
2023-03-18T22:37:59.900Z,9.00
2023-03-18T22:40:29.922Z,8.80
2023-03-18T22:43:27.082Z,8.80
2023-03-18T22:45:56.026Z,8.90
2023-03-18T22:48:24.166Z,8.90
2023-03-18T22:50:53.659Z,8.90
2023-03-18T22:53:24.402Z,8.90
2023-03-18T22:55:54.828Z,8.90
2023-03-18T22:58:25.999Z,8.90
2023-03-18T23:00:55.069Z,8.90
2023-03-18T23:03:26.675Z,8.90
2023-03-18T23:05:57.919Z,8.90
2023-03-18T23:08:27.358Z,8.90
2023-03-18T23:10:57.552Z,8.90
2023-03-18T23:13:30.761Z,8.90
2023-03-18T23:15:59.187Z,8.90
2023-03-18T23:18:27.282Z,8.90
2023-03-18T23:21:17.926Z,8.90
2023-03-18T23:23:46.431Z,8.90
2023-03-18T23:26:14.851Z,8.90
2023-03-18T23:28:45.437Z,8.90
2023-03-18T23:31:14.597Z,8.90
2023-03-18T23:33:42.691Z,9.00
2023-03-18T23:36:11.158Z,9.00
2023-03-18T23:38:39.197Z,8.90
2023-03-18T23:41:07.354Z,8.90
2023-03-18T23:43:35.528Z,8.90
2023-03-18T23:46:08.245Z,9.00
2023-03-18T23:48:47.672Z,9.00
2023-03-18T23:51:15.697Z,9.00
2023-03-18T23:53:45.759Z,9.00
2023-03-18T23:56:14.010Z,9.10
2023-03-18T23:58:43.011Z,9.10
